createdAt,value
2022-10-09T00:01:11.657Z,6.03
2022-10-09T00:03:40.300Z,6.80
2022-10-09T00:06:08.855Z,6.77
2022-10-09T00:08:36.649Z,6.70
2022-10-09T00:11:07.824Z,6.40
2022-10-09T00:13:35.251Z,6.50
2022-10-09T00:16:11.233Z,6.37
2022-10-09T00:18:38.379Z,5.90
2022-10-09T00:21:06.229Z,7.10
2022-10-09T00:23:33.065Z,6.83
2022-10-09T00:26:01.619Z,6.57
2022-10-09T00:28:35.288Z,5.60
2022-10-09T00:31:06.137Z,15.23
2022-10-09T00:33:34.265Z,13.80
2022-10-09T00:36:10.451Z,10.50
2022-10-09T00:38:37.255Z,10.00
2022-10-09T00:41:04.542Z,6.73
2022-10-09T00:43:57.377Z,8.30
2022-10-09T00:46:45.818Z,5.40
2022-10-09T00:49:24.906Z,5.70
2022-10-09T00:51:52.239Z,33.27
2022-10-09T00:54:22.643Z,57.27
2022-10-09T00:56:50.008Z,61.30
2022-10-09T00:59:17.568Z,67.60
2022-10-09T01:01:44.769Z,42.90
2022-10-09T01:04:12.073Z,16.87
2022-10-09T01:07:07.577Z,23.43
2022-10-09T01:09:50.249Z,45.67
2022-10-09T01:12:40.815Z,49.20
2022-10-09T01:15:16.922Z,60.90
2022-10-09T01:18:15.023Z,22.83
2022-10-09T01:21:03.865Z,34.83
2022-10-09T01:23:55.294Z,29.63
2022-10-09T01:26:34.110Z,28.80
2022-10-09T01:29:06.714Z,11.17
2022-10-09T01:31:39.373Z,17.17
2022-10-09T01:34:07.660Z,17.13
2022-10-09T01:36:36.856Z,18.47
2022-10-09T01:39:05.675Z,8.30
2022-10-09T01:41:32.428Z,7.50
2022-10-09T01:43:59.155Z,12.17
2022-10-09T01:46:29.640Z,12.37
2022-10-09T01:48:59.309Z,22.40
2022-10-09T01:51:30.243Z,24.40
2022-10-09T01:54:01.496Z,15.97
2022-10-09T01:56:33.244Z,19.90
2022-10-09T01:59:06.615Z,13.47
2022-10-09T02:01:36.511Z,11.07
2022-10-09T02:04:10.096Z,8.33
2022-10-09T02:06:40.150Z,8.13
2022-10-09T02:09:11.416Z,7.07
2022-10-09T02:11:41.513Z,6.50
2022-10-09T02:14:08.953Z,14.10
2022-10-09T02:16:45.509Z,19.23
2022-10-09T02:19:26.678Z,14.67
2022-10-09T02:22:05.634Z,6.60
2022-10-09T02:24:32.911Z,6.67
2022-10-09T02:27:00.653Z,6.00
2022-10-09T02:29:27.440Z,5.93
2022-10-09T02:31:54.269Z,5.57
2022-10-09T02:34:21.735Z,5.10
2022-10-09T02:36:48.763Z,5.53
2022-10-09T02:39:15.716Z,5.23
2022-10-09T02:41:42.430Z,5.07
2022-10-09T02:44:09.533Z,5.13
2022-10-09T02:46:38.332Z,5.50
2022-10-09T02:49:06.154Z,5.10
2022-10-09T02:51:33.244Z,4.60
2022-10-09T02:53:59.923Z,5.03
2022-10-09T02:56:26.649Z,6.50
2022-10-09T02:58:53.722Z,5.47
2022-10-09T03:01:21.058Z,5.47
2022-10-09T03:03:47.891Z,5.47
2022-10-09T03:06:21.008Z,6.00
2022-10-09T03:08:50.075Z,5.33
2022-10-09T03:11:18.152Z,5.63
2022-10-09T03:13:45.601Z,5.10
2022-10-09T03:16:17.655Z,5.60
2022-10-09T03:18:45.845Z,5.30
2022-10-09T03:21:15.520Z,5.30
2022-10-09T03:23:42.864Z,4.97
2022-10-09T03:26:15.837Z,5.60
2022-10-09T03:28:46.951Z,6.40
2022-10-09T03:31:27.684Z,4.93
2022-10-09T03:34:01.689Z,4.63
2022-10-09T03:36:28.419Z,5.10
2022-10-09T03:38:55.079Z,4.87
2022-10-09T03:41:21.744Z,5.53
2022-10-09T03:43:48.357Z,5.50
2022-10-09T03:46:15.098Z,5.10
2022-10-09T03:48:41.806Z,5.70
2022-10-09T03:51:08.559Z,4.87
2022-10-09T03:53:35.425Z,4.83
2022-10-09T03:56:02.055Z,5.40
2022-10-09T03:58:28.788Z,5.50
2022-10-09T04:00:55.737Z,5.20
2022-10-09T04:03:22.718Z,5.10
2022-10-09T04:05:49.528Z,4.77
2022-10-09T04:08:16.294Z,5.47
2022-10-09T04:10:42.940Z,5.00
2022-10-09T04:13:10.257Z,4.77
2022-10-09T04:15:37.545Z,5.00
2022-10-09T04:18:04.784Z,4.60
2022-10-09T04:20:31.679Z,5.30
2022-10-09T04:22:58.323Z,5.00
2022-10-09T04:25:25.058Z,5.43
2022-10-09T04:27:51.749Z,5.47
2022-10-09T04:30:18.385Z,4.60
2022-10-09T04:32:48.029Z,4.93
2022-10-09T04:35:15.248Z,5.40
2022-10-09T04:37:42.115Z,5.10
2022-10-09T04:40:09.066Z,5.07
2022-10-09T04:42:35.822Z,5.40
2022-10-09T04:45:02.549Z,5.33
2022-10-09T04:47:29.188Z,5.30
2022-10-09T04:49:55.830Z,5.03
2022-10-09T04:52:22.496Z,4.97
2022-10-09T04:54:49.162Z,4.53
2022-10-09T04:57:15.929Z,5.17
2022-10-09T04:59:42.603Z,4.60
2022-10-09T05:02:09.324Z,5.07
2022-10-09T05:04:36.027Z,4.37
2022-10-09T05:07:02.674Z,5.40
2022-10-09T05:09:29.424Z,5.17
2022-10-09T05:11:56.107Z,5.27
2022-10-09T05:14:22.862Z,4.50
2022-10-09T05:17:12.634Z,5.23
2022-10-09T05:19:39.408Z,5.23
2022-10-09T05:22:06.234Z,5.00
2022-10-09T05:24:32.889Z,4.80
2022-10-09T05:26:59.655Z,5.40
2022-10-09T05:29:26.293Z,5.07
2022-10-09T05:31:52.953Z,4.73
2022-10-09T05:34:19.752Z,4.70
2022-10-09T05:36:46.534Z,5.47
2022-10-09T05:39:13.248Z,5.23
2022-10-09T05:41:39.956Z,5.33
2022-10-09T05:44:06.711Z,5.20
2022-10-09T05:46:33.515Z,5.30
2022-10-09T05:49:07.170Z,4.70
2022-10-09T05:51:36.928Z,4.70
2022-10-09T05:54:05.059Z,5.20
2022-10-09T05:56:34.657Z,4.53
2022-10-09T05:59:09.540Z,5.57
2022-10-09T06:01:44.781Z,4.60
2022-10-09T06:04:20.558Z,5.40
2022-10-09T06:06:48.687Z,4.67
2022-10-09T06:09:17.794Z,4.73
2022-10-09T06:11:45.020Z,4.83
2022-10-09T06:14:13.552Z,4.97
2022-10-09T06:16:44.943Z,4.57
2022-10-09T06:19:14.366Z,5.10
2022-10-09T06:21:41.773Z,6.10
2022-10-09T06:24:08.527Z,5.90
2022-10-09T06:26:35.557Z,5.63
2022-10-09T06:29:02.879Z,5.23
2022-10-09T06:31:31.992Z,6.00
2022-10-09T06:34:00.903Z,5.57
2022-10-09T06:36:29.857Z,5.90
2022-10-09T06:38:58.761Z,6.10
2022-10-09T06:41:26.983Z,6.07
2022-10-09T06:43:56.515Z,5.57
2022-10-09T06:46:27.466Z,5.73
2022-10-09T06:48:54.313Z,6.67
2022-10-09T06:51:22.933Z,6.50
2022-10-09T06:53:54.443Z,6.10
2022-10-09T06:56:22.820Z,6.63
2022-10-09T06:58:49.912Z,7.10
2022-10-09T07:01:27.694Z,6.13
2022-10-09T07:03:59.869Z,6.10
2022-10-09T07:06:31.728Z,6.40
2022-10-09T07:09:01.082Z,6.67
2022-10-09T07:11:39.875Z,6.13
2022-10-09T07:14:08.440Z,6.93
2022-10-09T07:16:37.686Z,6.20
2022-10-09T07:19:07.570Z,5.63
2022-10-09T07:21:35.726Z,6.30
2022-10-09T07:24:03.704Z,6.40
2022-10-09T07:26:32.928Z,6.30
2022-10-09T07:29:00.199Z,6.33
2022-10-09T07:31:27.019Z,6.60
2022-10-09T07:33:56.490Z,6.30
2022-10-09T07:36:23.987Z,7.07
2022-10-09T07:38:55.613Z,6.40
2022-10-09T07:41:24.310Z,6.20
2022-10-09T07:43:51.396Z,6.80
2022-10-09T07:46:19.873Z,6.37
2022-10-09T07:48:47.085Z,5.50
2022-10-09T07:51:16.070Z,7.00
2022-10-09T07:53:46.003Z,6.70
2022-10-09T07:56:17.464Z,6.57
2022-10-09T07:58:49.108Z,6.70
2022-10-09T08:01:20.085Z,6.70
2022-10-09T08:03:48.451Z,7.00
2022-10-09T08:06:15.693Z,6.00
2022-10-09T08:08:42.615Z,5.53
2022-10-09T08:11:15.644Z,5.23
2022-10-09T08:13:43.712Z,5.77
2022-10-09T08:16:11.096Z,5.33
2022-10-09T08:18:38.019Z,5.43
2022-10-09T08:21:11.209Z,5.33
2022-10-09T08:23:37.987Z,5.97
2022-10-09T08:26:11.674Z,4.50
2022-10-09T08:28:38.454Z,5.07
2022-10-09T08:31:16.503Z,4.10
2022-10-09T08:33:43.382Z,4.10
2022-10-09T08:36:12.045Z,4.40
2022-10-09T08:38:47.285Z,4.60
2022-10-09T08:41:32.387Z,4.30
2022-10-09T08:44:19.092Z,4.47
2022-10-09T08:47:07.290Z,4.77
2022-10-09T08:49:46.913Z,4.43
2022-10-09T08:52:32.415Z,3.77
2022-10-09T08:55:06.092Z,3.83
2022-10-09T08:57:34.459Z,3.70
2022-10-09T09:00:01.291Z,3.97
2022-10-09T09:02:47.056Z,3.20
2022-10-09T09:05:52.397Z,3.27
2022-10-09T09:08:44.274Z,3.77
2022-10-09T09:11:38.061Z,2.87
2022-10-09T09:14:57.979Z,2.77
2022-10-09T09:17:58.018Z,3.40
2022-10-09T09:20:30.667Z,3.73
2022-10-09T09:23:01.060Z,3.20
2022-10-09T09:25:34.494Z,2.47
2022-10-09T09:28:24.316Z,3.67
2022-10-09T09:30:58.084Z,2.90
2022-10-09T09:33:44.983Z,3.17
2022-10-09T09:36:28.337Z,4.07
2022-10-09T09:39:44.275Z,3.00
2022-10-09T09:41:44.101Z,2.77
2022-10-09T09:44:13.267Z,2.83
2022-10-09T09:46:41.828Z,3.43
2022-10-09T09:49:26.939Z,3.37
2022-10-09T09:51:56.307Z,3.13
2022-10-09T09:54:26.804Z,3.47
2022-10-09T09:57:12.929Z,2.63
2022-10-09T09:59:43.309Z,2.60
2022-10-09T10:02:13.133Z,2.87
2022-10-09T10:05:14.296Z,2.17
2022-10-09T10:07:41.029Z,3.20
2022-10-09T10:10:07.774Z,2.53
2022-10-09T10:12:44.670Z,3.20
2022-10-09T10:15:37.437Z,2.17
2022-10-09T10:18:13.942Z,2.20
2022-10-09T10:20:47.201Z,2.33
2022-10-09T10:23:52.097Z,2.30
2022-10-09T10:26:27.150Z,2.20
2022-10-09T10:29:17.029Z,2.40
2022-10-09T10:31:47.241Z,2.20
2022-10-09T10:34:30.819Z,2.00
2022-10-09T10:37:10.567Z,2.17
2022-10-09T10:39:46.792Z,2.10
2022-10-09T10:42:24.849Z,1.70
2022-10-09T10:45:10.261Z,1.70
2022-10-09T10:47:44.206Z,2.97
2022-10-09T10:50:15.824Z,1.93
2022-10-09T10:53:02.753Z,1.50
2022-10-09T10:55:52.783Z,1.90
2022-10-09T10:58:31.071Z,1.70
2022-10-09T11:01:22.348Z,2.13
2022-10-09T11:04:21.360Z,1.70
2022-10-09T11:06:59.836Z,1.63
2022-10-09T11:09:33.883Z,2.17
2022-10-09T11:12:36.346Z,1.67
2022-10-09T11:15:39.254Z,1.60
2022-10-09T11:18:21.465Z,1.80
2022-10-09T11:21:03.806Z,1.73
2022-10-09T11:23:39.780Z,2.27
2022-10-09T11:26:42.213Z,1.30
2022-10-09T11:29:53.376Z,1.47
2022-10-09T11:32:31.078Z,1.50
2022-10-09T11:35:18.115Z,1.50
2022-10-09T11:37:59.821Z,1.00
2022-10-09T11:40:35.066Z,1.43
2022-10-09T11:43:27.357Z,1.57
2022-10-09T11:46:03.327Z,1.50
2022-10-09T11:48:54.717Z,1.70
2022-10-09T11:51:33.192Z,1.90
2022-10-09T11:54:01.857Z,1.30
2022-10-09T11:56:31.992Z,1.50
2022-10-09T11:59:01.150Z,1.40
2022-10-09T12:01:44.561Z,1.60
2022-10-09T12:04:20.840Z,2.40
2022-10-09T12:07:00.509Z,1.50
2022-10-09T12:09:35.206Z,1.50
2022-10-09T12:12:07.015Z,1.87
2022-10-09T12:14:37.089Z,1.50
2022-10-09T12:17:21.707Z,1.40
2022-10-09T12:19:58.580Z,1.47
2022-10-09T12:23:13.962Z,1.70
2022-10-09T12:25:45.067Z,1.57
2022-10-09T12:28:54.430Z,1.90
2022-10-09T12:31:25.718Z,1.70
2022-10-09T12:33:57.717Z,1.40
2022-10-09T12:36:29.562Z,2.03
2022-10-09T12:38:56.373Z,1.33
2022-10-09T12:41:33.886Z,1.60
2022-10-09T12:44:15.911Z,1.30
2022-10-09T12:46:42.689Z,1.20
2022-10-09T12:49:19.301Z,1.40
2022-10-09T12:51:56.060Z,1.20
2022-10-09T12:54:27.295Z,1.70
2022-10-09T12:56:56.497Z,1.53
2022-10-09T12:59:25.339Z,1.20
2022-10-09T13:01:57.753Z,1.40
2022-10-09T13:04:31.282Z,1.20
2022-10-09T13:07:05.627Z,1.50
2022-10-09T13:09:38.382Z,1.27
2022-10-09T13:12:09.832Z,2.00
2022-10-09T13:14:46.547Z,1.50
2022-10-09T13:20:12.901Z,1.60
2022-10-09T13:22:39.830Z,1.47
2022-10-09T13:25:07.194Z,1.40
2022-10-09T13:27:37.944Z,1.50
2022-10-09T13:30:06.018Z,1.40
2022-10-09T13:32:32.749Z,1.57
2022-10-09T13:34:59.467Z,1.77
2022-10-09T13:37:27.415Z,1.63
2022-10-09T13:39:59.230Z,1.60
2022-10-09T13:42:30.083Z,1.43
2022-10-09T13:44:57.248Z,1.13
2022-10-09T13:47:24.840Z,1.23
2022-10-09T13:49:51.671Z,1.60
2022-10-09T13:52:18.587Z,1.70
2022-10-09T13:54:45.388Z,1.40
2022-10-09T13:57:12.160Z,1.50
2022-10-09T13:59:39.073Z,1.63
2022-10-09T14:02:05.891Z,1.40
2022-10-09T14:04:32.542Z,1.17
2022-10-09T14:06:59.321Z,1.20
2022-10-09T14:09:26.132Z,1.60
2022-10-09T14:11:52.900Z,1.60
2022-10-09T14:14:19.730Z,1.70
2022-10-09T14:16:46.536Z,1.77
2022-10-09T14:19:13.230Z,1.63
2022-10-09T14:21:40.253Z,1.50
2022-10-09T14:24:07.174Z,1.70
2022-10-09T14:26:34.450Z,1.70
2022-10-09T14:29:02.938Z,1.73
2022-10-09T14:31:30.147Z,1.30
2022-10-09T14:33:59.516Z,1.57
2022-10-09T14:36:27.072Z,1.73
2022-10-09T14:38:54.009Z,1.80
2022-10-09T14:41:21.365Z,1.90
2022-10-09T14:43:49.025Z,2.17
2022-10-09T14:46:17.753Z,1.80
2022-10-09T14:48:45.973Z,1.60
2022-10-09T14:51:19.490Z,1.60
2022-10-09T14:53:47.121Z,1.90
2022-10-09T14:56:17.954Z,1.70
2022-10-09T14:58:45.075Z,1.60
2022-10-09T15:01:17.377Z,2.00
2022-10-09T15:03:46.032Z,1.75
2022-10-09T15:06:13.408Z,1.87
2022-10-09T15:08:42.318Z,2.17
2022-10-09T15:11:10.539Z,2.00
2022-10-09T15:13:38.028Z,2.20
2022-10-09T15:16:16.517Z,2.23
2022-10-09T15:18:44.004Z,1.97
2022-10-09T15:21:16.712Z,1.60
2022-10-09T15:23:43.914Z,2.10
2022-10-09T15:26:11.177Z,1.90
2022-10-09T15:28:39.238Z,1.70
2022-10-09T15:31:07.360Z,1.83
2022-10-09T15:33:34.303Z,1.87
2022-10-09T15:36:03.942Z,2.00
2022-10-09T15:38:30.829Z,2.30
2022-10-09T15:40:57.550Z,1.50
2022-10-09T15:43:26.213Z,2.60
2022-10-09T15:45:54.187Z,1.90
2022-10-09T15:48:23.618Z,1.97
2022-10-09T15:50:53.620Z,1.90
2022-10-09T15:53:22.614Z,2.70
2022-10-09T15:55:51.921Z,2.67
2022-10-09T15:58:19.143Z,2.60
2022-10-09T16:00:49.302Z,2.70
2022-10-09T16:03:17.957Z,3.17
2022-10-09T16:05:48.841Z,2.80
2022-10-09T16:08:17.089Z,2.77
2022-10-09T16:10:49.002Z,2.80
2022-10-09T16:13:16.954Z,2.63
2022-10-09T16:15:45.140Z,2.70
2022-10-09T16:18:12.071Z,3.30
2022-10-09T16:20:39.715Z,3.37
2022-10-09T16:23:08.387Z,2.57
2022-10-09T16:25:36.620Z,3.13
2022-10-09T16:28:04.492Z,3.30
2022-10-09T16:30:33.176Z,3.10
2022-10-09T16:32:59.835Z,3.57
2022-10-09T16:35:26.629Z,3.20
2022-10-09T16:37:53.387Z,3.10
2022-10-09T16:40:25.435Z,3.60
2022-10-09T16:43:00.196Z,3.57
2022-10-09T16:45:28.168Z,3.50
2022-10-09T16:47:59.531Z,3.73
2022-10-09T16:50:26.881Z,3.50
2022-10-09T16:52:53.639Z,3.57
2022-10-09T16:55:20.408Z,3.10
2022-10-09T16:57:47.443Z,4.40
2022-10-09T17:00:19.076Z,3.27
2022-10-09T17:02:46.385Z,3.03
2022-10-09T17:05:13.564Z,3.40
2022-10-09T17:07:40.617Z,3.23
2022-10-09T17:10:09.552Z,3.70
2022-10-09T17:12:37.312Z,4.10
2022-10-09T17:15:05.569Z,4.00
2022-10-09T17:17:32.569Z,3.97
2022-10-09T17:19:59.511Z,3.83
2022-10-09T17:22:26.382Z,4.43
2022-10-09T17:24:53.268Z,4.30
2022-10-09T17:27:20.068Z,4.70
2022-10-09T17:29:48.297Z,3.80
2022-10-09T17:32:15.306Z,3.70
2022-10-09T17:34:45.988Z,3.97
2022-10-09T17:37:13.449Z,4.00
2022-10-09T17:39:42.231Z,4.47
2022-10-09T17:42:11.379Z,3.87
2022-10-09T17:44:38.400Z,3.93
2022-10-09T17:47:06.293Z,3.43
2022-10-09T17:49:33.230Z,4.73
2022-10-09T17:52:00.248Z,4.00
2022-10-09T17:54:27.163Z,3.90
2022-10-09T17:56:54.673Z,5.20
2022-10-09T17:59:22.202Z,3.83
2022-10-09T18:01:49.062Z,4.33
2022-10-09T18:04:17.516Z,4.90
2022-10-09T18:06:45.087Z,4.10
2022-10-09T18:09:12.389Z,4.60
2022-10-09T18:11:39.241Z,4.03
2022-10-09T18:14:06.056Z,4.40
2022-10-09T18:16:36.857Z,4.13
2022-10-09T18:19:13.953Z,4.30
2022-10-09T18:21:43.577Z,4.80
2022-10-09T18:24:11.590Z,5.63
2022-10-09T18:26:39.390Z,6.40
2022-10-09T18:29:06.978Z,5.50
2022-10-09T18:31:34.415Z,6.00
2022-10-09T18:34:01.529Z,4.50
2022-10-09T18:36:34.802Z,5.63
2022-10-09T18:39:13.498Z,5.43
2022-10-09T18:41:40.802Z,5.30
2022-10-09T18:44:17.484Z,4.70
2022-10-09T18:46:51.583Z,4.90
2022-10-09T18:49:20.984Z,4.60
2022-10-09T18:51:48.725Z,5.10
2022-10-09T18:54:18.249Z,5.10
2022-10-09T18:56:45.479Z,5.20
2022-10-09T18:59:16.031Z,5.20
2022-10-09T19:01:42.941Z,5.10
2022-10-09T19:04:09.850Z,5.53
2022-10-09T19:06:37.371Z,4.57
2022-10-09T19:09:04.604Z,5.37
2022-10-09T19:11:33.740Z,4.93
2022-10-09T19:14:01.136Z,5.33
2022-10-09T19:16:29.679Z,5.60
2022-10-09T19:18:56.859Z,4.80
2022-10-09T19:21:23.897Z,4.47
2022-10-09T19:23:53.349Z,4.83
2022-10-09T19:26:21.424Z,4.47
2022-10-09T19:28:48.651Z,5.20
2022-10-09T19:31:15.925Z,5.30
2022-10-09T19:33:43.325Z,5.50
2022-10-09T19:36:12.640Z,5.23
2022-10-09T19:38:40.559Z,5.07
2022-10-09T19:41:13.669Z,5.40
2022-10-09T19:43:41.639Z,5.57
2022-10-09T19:46:14.704Z,5.10
2022-10-09T19:48:41.753Z,5.40
2022-10-09T19:51:13.422Z,4.90
2022-10-09T19:53:40.881Z,5.93
2022-10-09T19:56:19.382Z,5.37
2022-10-09T19:58:48.632Z,5.20
2022-10-09T20:01:18.591Z,5.30
2022-10-09T20:03:46.235Z,5.83
2022-10-09T20:06:13.526Z,5.63
2022-10-09T20:08:42.072Z,5.23
2022-10-09T20:11:11.499Z,6.03
2022-10-09T20:13:40.578Z,5.77
2022-10-09T20:16:11.166Z,5.87
2022-10-09T20:18:42.508Z,5.90
2022-10-09T20:21:11.401Z,5.60
2022-10-09T20:23:38.765Z,6.30
2022-10-09T20:26:09.342Z,4.97
2022-10-09T20:28:38.186Z,5.60
2022-10-09T20:31:07.970Z,6.00
2022-10-09T20:33:36.436Z,6.30
2022-10-09T20:36:04.659Z,5.80
2022-10-09T20:38:31.689Z,7.50
2022-10-09T20:41:07.728Z,5.80
2022-10-09T20:43:35.970Z,6.03
2022-10-09T20:46:12.454Z,6.27
2022-10-09T20:48:40.118Z,5.73
2022-10-09T20:51:07.187Z,6.20
2022-10-09T20:53:34.399Z,6.80
2022-10-09T20:56:05.744Z,6.60
2022-10-09T20:58:32.863Z,7.20
2022-10-09T21:00:59.798Z,6.70
2022-10-09T21:03:26.603Z,6.53
2022-10-09T21:05:53.416Z,7.33
2022-10-09T21:08:20.263Z,6.23
2022-10-09T21:10:49.472Z,6.20
2022-10-09T21:13:17.273Z,5.97
2022-10-09T21:15:45.792Z,6.80
2022-10-09T21:18:13.524Z,6.57
2022-10-09T21:20:41.889Z,6.00
2022-10-09T21:23:09.845Z,6.40
2022-10-09T21:25:37.539Z,6.83
2022-10-09T21:28:05.803Z,6.10
2022-10-09T21:30:41.553Z,6.10
2022-10-09T21:33:09.212Z,5.87
2022-10-09T21:35:44.306Z,6.87
2022-10-09T21:38:16.624Z,7.40
2022-10-09T21:40:43.773Z,7.20
2022-10-09T21:43:10.869Z,6.27
2022-10-09T21:45:38.994Z,7.30
2022-10-09T21:48:06.500Z,7.40
2022-10-09T21:50:33.614Z,7.50
2022-10-09T21:53:00.613Z,7.30
2022-10-09T21:55:27.447Z,6.47
2022-10-09T21:57:54.725Z,6.70
2022-10-09T22:00:21.810Z,7.50
2022-10-09T22:02:48.824Z,7.83
2022-10-09T22:05:15.870Z,6.33
2022-10-09T22:07:42.587Z,6.80
2022-10-09T22:10:09.763Z,6.20
2022-10-09T22:12:36.497Z,7.13
2022-10-09T22:15:03.808Z,6.57
2022-10-09T22:17:30.516Z,6.57
2022-10-09T22:19:57.320Z,6.17
2022-10-09T22:22:24.285Z,7.80
2022-10-09T22:24:51.821Z,6.40
2022-10-09T22:27:19.263Z,6.20
2022-10-09T22:29:45.989Z,7.10
2022-10-09T22:32:12.812Z,7.03
2022-10-09T22:34:39.550Z,5.90
2022-10-09T22:37:06.303Z,6.33
2022-10-09T22:39:33.255Z,5.87
2022-10-09T22:41:59.937Z,5.90
2022-10-09T22:44:26.826Z,5.50
2022-10-09T22:46:53.509Z,5.80
2022-10-09T22:49:20.313Z,5.23
2022-10-09T22:51:47.109Z,5.33
2022-10-09T22:54:14.207Z,5.03
2022-10-09T22:56:43.901Z,5.20
2022-10-09T22:59:13.608Z,5.40
2022-10-09T23:01:53.643Z,5.70
2022-10-09T23:04:21.738Z,5.53
2022-10-09T23:06:57.107Z,5.10
2022-10-09T23:09:27.512Z,4.80
2022-10-09T23:11:55.620Z,5.17
2022-10-09T23:14:23.210Z,5.30
2022-10-09T23:16:50.021Z,5.50
2022-10-09T23:19:20.235Z,5.63
2022-10-09T23:21:47.721Z,5.90
2022-10-09T23:24:17.483Z,6.40
2022-10-09T23:26:46.273Z,5.93
2022-10-09T23:29:16.581Z,5.40
2022-10-09T23:31:44.418Z,5.47
2022-10-09T23:34:11.546Z,5.93
2022-10-09T23:36:38.806Z,5.53
2022-10-09T23:39:06.825Z,6.10
2022-10-09T23:41:33.828Z,6.80
2022-10-09T23:44:00.641Z,7.10
2022-10-09T23:46:30.437Z,6.37
2022-10-09T23:48:57.330Z,6.63
2022-10-09T23:51:26.118Z,6.57
2022-10-09T23:53:53.072Z,6.53
2022-10-09T23:56:25.891Z,7.83
2022-10-09T23:58:53.839Z,9.10
